首页
METAR-TAF:

METAR-TAF

机场 :

格林维尔, 密西西比州, 美国

纬度: 33-28-58N, 经度: 090-59-08W, 海拔: 40米

当前天气观测

该预报发布于25分钟前的20:53 UTC
风速6节,风向东转东南
温度 17°C
湿度 36%
气压 1030 hPa
能見度: 16.1公里
天空无云

METAR: KGLH 072053Z 11006KT 10SM CLR 17/02 A3042 RMK AO2 SLP308 T01670017 56021

时间: 15:18 (21:18 UTC)

预报

该预报发布于3小时和58分钟前的17:20 UTC
预报有效从07日的 18点(UTC)到 08日的 18点(UTC)
风速6节,风向
能見度: 10公里
天空无云
从 08日的 0300点(UTC)
风速3节,风向多变
能見度: 10公里
天空无云

TAF: KGLH 071720Z 0718/0818 08006KT P6SM SKC FM080300 VRB03KT P6SM SKC

超过4000个机场的气象观测和天气预报(METAR&TAF报告)。

可查询的气象台以黄色和红色小点在地图上表示。

将鼠标移到小点上方,可查看气象台名称。

然后点击查看天气观测和预报。

如需切换地图:点击带黑十字的绿色按钮放大地图;点击带横线的绿色按钮缩小地图;或者点击绿色箭头查看邻近地区的地图。


METAR-TAF: